Terminal Aerodrome Forecast
Issued by NWS

Current Version | Previous Version | Text Only | Print | Product List | Glossary On
Versions: 1 2 3 4 5 6 7 8 9 10 11 12 13 14 15 16 17 18 19 20 21 22 23 24 25 26
000
FTUS41 KPBZ 240900 AAB
TAFHLG
TAF AMD
KHLG 240902Z 2409/2506 00000KT 1/4SM FG VV001
     FM241200 27003KT 2SM BR SCT003
     FM241300 27005KT P6SM BKN200=

USA.gov is the U.S. government's official web portal to all federal, state and local government web resources and services.